<?xml version="1.0" encoding="UTF-8" standalone="no" ?>
<gpx xmlns="http://www.topografix.com/GPX/1/1" xmlns:xsi="http://www.w3.org/2001/XMLSchema-instance" xsi:schemaLocation="http://www.topografix.com/GPX/1/1 http://www.topografix.com/GPX/1/1/gpx.xsd" version="1.1" creator="VisuGPX - https://www.visugpx.com">
  <metadata>
    <name>Autour du Nivot</name>
    <desc><![CDATA[Randonnée autour du lycée du Nivot, composée de 2 boucles. La boucle la plus au sud fait traverser une prairie au sommet.
L'autre boucle vous fera longer la rivière St Rivoal, avant de revenir par les hauteurs et la piste de bi-cross.
Très peu fréquentée, cette randonnée peut être naturiste (randonue).]]></desc>
  </metadata>
  <trk>
    <name><![CDATA[Autour du Nivot_1]]></name>
    <trkseg>
      <trkpt lat="48.31303" lon="-4.01259">
        <ele>131</ele>
        <time>2014-09-21T08:52:37Z</time>
      </trkpt>
      <trkpt lat="48.31327" lon="-4.01281">
        <ele>131</ele>
        <time>2014-09-21T08:53:37Z</time>
      </trkpt>
      <trkpt lat="48.31368" lon="-4.01254">
        <ele>123</ele>
        <time>2014-09-21T08:54:37Z</time>
      </trkpt>
      <trkpt lat="48.31352" lon="-4.01128">
        <ele>131</ele>
        <time>2014-09-21T08:55:37Z</time>
      </trkpt>
      <trkpt lat="48.31316" lon="-4.01124">
        <ele>136</ele>
        <time>2014-09-21T08:56:37Z</time>
      </trkpt>
      <trkpt lat="48.31475" lon="-4.01248">
        <ele>123</ele>
        <time>2014-09-21T08:57:35Z</time>
      </trkpt>
      <trkpt lat="48.31571" lon="-4.01228">
        <ele>129</ele>
        <time>2014-09-21T08:58:46Z</time>
      </trkpt>
      <trkpt lat="48.31588" lon="-4.01265">
        <ele>135</ele>
        <time>2014-09-21T08:59:46Z</time>
      </trkpt>
      <trkpt lat="48.31635" lon="-4.01362">
        <ele>141</ele>
        <time>2014-09-21T09:00:46Z</time>
      </trkpt>
      <trkpt lat="48.31691" lon="-4.01452">
        <ele>149</ele>
        <time>2014-09-21T09:01:46Z</time>
      </trkpt>
      <trkpt lat="48.31738" lon="-4.01519">
        <ele>153</ele>
        <time>2014-09-21T09:02:46Z</time>
      </trkpt>
      <trkpt lat="48.31794" lon="-4.01568">
        <ele>162</ele>
        <time>2014-09-21T09:03:46Z</time>
      </trkpt>
      <trkpt lat="48.31848" lon="-4.01608">
        <ele>173</ele>
        <time>2014-09-21T09:04:46Z</time>
      </trkpt>
      <trkpt lat="48.31901" lon="-4.01648">
        <ele>178</ele>
        <time>2014-09-21T09:05:47Z</time>
      </trkpt>
      <trkpt lat="48.31955" lon="-4.01668">
        <ele>186</ele>
        <time>2014-09-21T09:06:47Z</time>
      </trkpt>
      <trkpt lat="48.3203" lon="-4.01669">
        <ele>198</ele>
        <time>2014-09-21T09:08:04Z</time>
      </trkpt>
      <trkpt lat="48.32088" lon="-4.01694">
        <ele>211</ele>
        <time>2014-09-21T09:09:04Z</time>
      </trkpt>
      <trkpt lat="48.32138" lon="-4.01741">
        <ele>215</ele>
        <time>2014-09-21T09:10:04Z</time>
      </trkpt>
      <trkpt lat="48.32186" lon="-4.01783">
        <ele>226</ele>
        <time>2014-09-21T09:11:04Z</time>
      </trkpt>
      <trkpt lat="48.32237" lon="-4.01837">
        <ele>232</ele>
        <time>2014-09-21T09:12:05Z</time>
      </trkpt>
      <trkpt lat="48.32294" lon="-4.01901">
        <ele>236</ele>
        <time>2014-09-21T09:13:05Z</time>
      </trkpt>
      <trkpt lat="48.32353" lon="-4.01988">
        <ele>234</ele>
        <time>2014-09-21T09:14:05Z</time>
      </trkpt>
      <trkpt lat="48.32424" lon="-4.01977">
        <ele>223</ele>
        <time>2014-09-21T09:15:05Z</time>
      </trkpt>
      <trkpt lat="48.32473" lon="-4.01912">
        <ele>220</ele>
        <time>2014-09-21T09:16:05Z</time>
      </trkpt>
      <trkpt lat="48.32507" lon="-4.01824">
        <ele>207</ele>
        <time>2014-09-21T09:17:05Z</time>
      </trkpt>
      <trkpt lat="48.32544" lon="-4.01744">
        <ele>199</ele>
        <time>2014-09-21T09:18:07Z</time>
      </trkpt>
      <trkpt lat="48.32571" lon="-4.01807">
        <ele>192</ele>
        <time>2014-09-21T09:19:07Z</time>
      </trkpt>
      <trkpt lat="48.32588" lon="-4.01828">
        <ele>180</ele>
        <time>2014-09-21T09:20:07Z</time>
      </trkpt>
      <trkpt lat="48.32589" lon="-4.01855">
        <ele>175</ele>
        <time>2014-09-21T09:21:23Z</time>
      </trkpt>
      <trkpt lat="48.32585" lon="-4.01982">
        <ele>169</ele>
        <time>2014-09-21T09:22:23Z</time>
      </trkpt>
      <trkpt lat="48.32571" lon="-4.02127">
        <ele>168</ele>
        <time>2014-09-21T09:23:24Z</time>
      </trkpt>
      <trkpt lat="48.3257" lon="-4.022">
        <ele>163</ele>
        <time>2014-09-21T09:24:24Z</time>
      </trkpt>
      <trkpt lat="48.32574" lon="-4.02207">
        <ele>163</ele>
        <time>2014-09-21T09:25:25Z</time>
      </trkpt>
      <trkpt lat="48.32578" lon="-4.0222">
        <ele>163</ele>
        <time>2014-09-21T09:26:26Z</time>
      </trkpt>
      <trkpt lat="48.32634" lon="-4.02159">
        <ele>157</ele>
        <time>2014-09-21T09:27:25Z</time>
      </trkpt>
      <trkpt lat="48.32681" lon="-4.02035">
        <ele>154</ele>
        <time>2014-09-21T09:28:26Z</time>
      </trkpt>
      <trkpt lat="48.32734" lon="-4.01926">
        <ele>150</ele>
        <time>2014-09-21T09:29:26Z</time>
      </trkpt>
      <trkpt lat="48.32778" lon="-4.0184">
        <ele>149</ele>
        <time>2014-09-21T09:30:26Z</time>
      </trkpt>
      <trkpt lat="48.3281" lon="-4.0174">
        <ele>145</ele>
        <time>2014-09-21T09:31:27Z</time>
      </trkpt>
      <trkpt lat="48.32822" lon="-4.01624">
        <ele>142</ele>
        <time>2014-09-21T09:32:28Z</time>
      </trkpt>
      <trkpt lat="48.32829" lon="-4.01508">
        <ele>137</ele>
        <time>2014-09-21T09:33:28Z</time>
      </trkpt>
      <trkpt lat="48.32834" lon="-4.01395">
        <ele>128</ele>
        <time>2014-09-21T09:34:28Z</time>
      </trkpt>
      <trkpt lat="48.32807" lon="-4.01344">
        <ele>131</ele>
        <time>2014-09-21T09:35:28Z</time>
      </trkpt>
      <trkpt lat="48.32789" lon="-4.01287">
        <ele>130</ele>
        <time>2014-09-21T09:36:28Z</time>
      </trkpt>
      <trkpt lat="48.3278" lon="-4.01247">
        <ele>129</ele>
        <time>2014-09-21T09:37:30Z</time>
      </trkpt>
      <trkpt lat="48.3277" lon="-4.01172">
        <ele>128</ele>
        <time>2014-09-21T09:38:31Z</time>
      </trkpt>
      <trkpt lat="48.32745" lon="-4.01135">
        <ele>129</ele>
        <time>2014-09-21T09:39:30Z</time>
      </trkpt>
      <trkpt lat="48.32721" lon="-4.01118">
        <ele>130</ele>
        <time>2014-09-21T09:40:30Z</time>
      </trkpt>
      <trkpt lat="48.32657" lon="-4.01108">
        <ele>128</ele>
        <time>2014-09-21T09:41:30Z</time>
      </trkpt>
      <trkpt lat="48.32586" lon="-4.01121">
        <ele>128</ele>
        <time>2014-09-21T09:42:30Z</time>
      </trkpt>
      <trkpt lat="48.32518" lon="-4.01095">
        <ele>126</ele>
        <time>2014-09-21T09:43:30Z</time>
      </trkpt>
      <trkpt lat="48.32413" lon="-4.01076">
        <ele>119</ele>
        <time>2014-09-21T09:44:31Z</time>
      </trkpt>
      <trkpt lat="48.32342" lon="-4.01114">
        <ele>123</ele>
        <time>2014-09-21T09:45:31Z</time>
      </trkpt>
      <trkpt lat="48.3228" lon="-4.01072">
        <ele>118</ele>
        <time>2014-09-21T09:46:32Z</time>
      </trkpt>
      <trkpt lat="48.32218" lon="-4.00992">
        <ele>113</ele>
        <time>2014-09-21T09:47:32Z</time>
      </trkpt>
      <trkpt lat="48.32152" lon="-4.00901">
        <ele>109</ele>
        <time>2014-09-21T09:48:32Z</time>
      </trkpt>
      <trkpt lat="48.32063" lon="-4.00856">
        <ele>112</ele>
        <time>2014-09-21T09:49:32Z</time>
      </trkpt>
      <trkpt lat="48.31978" lon="-4.00834">
        <ele>112</ele>
        <time>2014-09-21T09:50:32Z</time>
      </trkpt>
      <trkpt lat="48.31901" lon="-4.00782">
        <ele>107</ele>
        <time>2014-09-21T09:51:32Z</time>
      </trkpt>
      <trkpt lat="48.31866" lon="-4.00684">
        <ele>101</ele>
        <time>2014-09-21T09:52:32Z</time>
      </trkpt>
      <trkpt lat="48.31863" lon="-4.00596">
        <ele>97</ele>
        <time>2014-09-21T09:53:32Z</time>
      </trkpt>
      <trkpt lat="48.31858" lon="-4.00518">
        <ele>94</ele>
        <time>2014-09-21T09:54:36Z</time>
      </trkpt>
      <trkpt lat="48.3181" lon="-4.00419">
        <ele>91</ele>
        <time>2014-09-21T09:55:36Z</time>
      </trkpt>
      <trkpt lat="48.31756" lon="-4.00359">
        <ele>89</ele>
        <time>2014-09-21T09:56:36Z</time>
      </trkpt>
      <trkpt lat="48.31739" lon="-4.00287">
        <ele>88</ele>
        <time>2014-09-21T09:57:36Z</time>
      </trkpt>
      <trkpt lat="48.31685" lon="-4.0024">
        <ele>87</ele>
        <time>2014-09-21T09:58:36Z</time>
      </trkpt>
      <trkpt lat="48.31612" lon="-4.00183">
        <ele>85</ele>
        <time>2014-09-21T09:59:36Z</time>
      </trkpt>
      <trkpt lat="48.31546" lon="-4.00115">
        <ele>86</ele>
        <time>2014-09-21T10:00:37Z</time>
      </trkpt>
      <trkpt lat="48.31492" lon="-4.0007">
        <ele>87</ele>
        <time>2014-09-21T10:01:37Z</time>
      </trkpt>
      <trkpt lat="48.31433" lon="-4.00007">
        <ele>88</ele>
        <time>2014-09-21T10:02:37Z</time>
      </trkpt>
      <trkpt lat="48.31361" lon="-3.99963">
        <ele>87</ele>
        <time>2014-09-21T10:03:37Z</time>
      </trkpt>
      <trkpt lat="48.31288" lon="-3.99998">
        <ele>83</ele>
        <time>2014-09-21T10:04:37Z</time>
      </trkpt>
      <trkpt lat="48.31229" lon="-3.99959">
        <ele>86</ele>
        <time>2014-09-21T10:05:37Z</time>
      </trkpt>
      <trkpt lat="48.31164" lon="-3.99997">
        <ele>81</ele>
        <time>2014-09-21T10:06:37Z</time>
      </trkpt>
      <trkpt lat="48.31104" lon="-4.00026">
        <ele>77</ele>
        <time>2014-09-21T10:07:37Z</time>
      </trkpt>
      <trkpt lat="48.31029" lon="-4.00077">
        <ele>74</ele>
        <time>2014-09-21T10:08:38Z</time>
      </trkpt>
      <trkpt lat="48.30976" lon="-4.0001">
        <ele>74</ele>
        <time>2014-09-21T10:09:38Z</time>
      </trkpt>
      <trkpt lat="48.30981" lon="-4.00009">
        <ele>75</ele>
        <time>2014-09-21T10:10:38Z</time>
      </trkpt>
      <trkpt lat="48.30978" lon="-4.00006">
        <ele>75</ele>
        <time>2014-09-21T10:11:39Z</time>
      </trkpt>
      <trkpt lat="48.30987" lon="-4.00007">
        <ele>75</ele>
        <time>2014-09-21T10:12:39Z</time>
      </trkpt>
      <trkpt lat="48.31025" lon="-3.99978">
        <ele>86</ele>
        <time>2014-09-21T10:13:39Z</time>
      </trkpt>
      <trkpt lat="48.31108" lon="-3.99955">
        <ele>90</ele>
        <time>2014-09-21T10:14:39Z</time>
      </trkpt>
      <trkpt lat="48.31165" lon="-3.99936">
        <ele>93</ele>
        <time>2014-09-21T10:15:39Z</time>
      </trkpt>
      <trkpt lat="48.31233" lon="-3.99868">
        <ele>105</ele>
        <time>2014-09-21T10:16:40Z</time>
      </trkpt>
      <trkpt lat="48.31288" lon="-3.99808">
        <ele>109</ele>
        <time>2014-09-21T10:17:41Z</time>
      </trkpt>
      <trkpt lat="48.31324" lon="-3.99736">
        <ele>119</ele>
        <time>2014-09-21T10:18:41Z</time>
      </trkpt>
      <trkpt lat="48.3138" lon="-3.99648">
        <ele>128</ele>
        <time>2014-09-21T10:19:42Z</time>
      </trkpt>
      <trkpt lat="48.31434" lon="-3.99597">
        <ele>124</ele>
        <time>2014-09-21T10:20:42Z</time>
      </trkpt>
      <trkpt lat="48.31486" lon="-3.99518">
        <ele>129</ele>
        <time>2014-09-21T10:21:43Z</time>
      </trkpt>
      <trkpt lat="48.31442" lon="-3.99517">
        <ele>134</ele>
        <time>2014-09-21T10:22:43Z</time>
      </trkpt>
      <trkpt lat="48.31419" lon="-3.99489">
        <ele>143</ele>
        <time>2014-09-21T10:23:43Z</time>
      </trkpt>
      <trkpt lat="48.31467" lon="-3.9937">
        <ele>153</ele>
        <time>2014-09-21T10:24:43Z</time>
      </trkpt>
      <trkpt lat="48.31493" lon="-3.99268">
        <ele>160</ele>
        <time>2014-09-21T10:25:43Z</time>
      </trkpt>
      <trkpt lat="48.31471" lon="-3.99162">
        <ele>165</ele>
        <time>2014-09-21T10:26:43Z</time>
      </trkpt>
      <trkpt lat="48.31415" lon="-3.99133">
        <ele>176</ele>
        <time>2014-09-21T10:27:44Z</time>
      </trkpt>
      <trkpt lat="48.31341" lon="-3.99125">
        <ele>177</ele>
        <time>2014-09-21T10:28:45Z</time>
      </trkpt>
      <trkpt lat="48.31281" lon="-3.99153">
        <ele>181</ele>
        <time>2014-09-21T10:29:44Z</time>
      </trkpt>
      <trkpt lat="48.31239" lon="-3.99141">
        <ele>180</ele>
        <time>2014-09-21T10:30:45Z</time>
      </trkpt>
      <trkpt lat="48.31204" lon="-3.99045">
        <ele>183</ele>
        <time>2014-09-21T10:31:45Z</time>
      </trkpt>
      <trkpt lat="48.31199" lon="-3.99006">
        <ele>184</ele>
        <time>2014-09-21T10:32:45Z</time>
      </trkpt>
      <trkpt lat="48.31206" lon="-3.99004">
        <ele>184</ele>
        <time>2014-09-21T10:33:45Z</time>
      </trkpt>
      <trkpt lat="48.31207" lon="-3.99005">
        <ele>184</ele>
        <time>2014-09-21T10:34:46Z</time>
      </trkpt>
      <trkpt lat="48.31206" lon="-3.99003">
        <ele>184</ele>
        <time>2014-09-21T10:35:46Z</time>
      </trkpt>
      <trkpt lat="48.31208" lon="-3.99007">
        <ele>184</ele>
        <time>2014-09-21T10:36:46Z</time>
      </trkpt>
      <trkpt lat="48.31209" lon="-3.9901">
        <ele>184</ele>
        <time>2014-09-21T10:37:47Z</time>
      </trkpt>
      <trkpt lat="48.31205" lon="-3.99005">
        <ele>184</ele>
        <time>2014-09-21T10:38:48Z</time>
      </trkpt>
      <trkpt lat="48.31204" lon="-3.99006">
        <ele>184</ele>
        <time>2014-09-21T10:39:48Z</time>
      </trkpt>
      <trkpt lat="48.31203" lon="-3.99004">
        <ele>184</ele>
        <time>2014-09-21T10:40:48Z</time>
      </trkpt>
      <trkpt lat="48.31201" lon="-3.99">
        <ele>184</ele>
        <time>2014-09-21T10:41:48Z</time>
      </trkpt>
      <trkpt lat="48.31202" lon="-3.99004">
        <ele>184</ele>
        <time>2014-09-21T10:43:28Z</time>
      </trkpt>
      <trkpt lat="48.31204" lon="-3.99009">
        <ele>184</ele>
        <time>2014-09-21T10:44:28Z</time>
      </trkpt>
      <trkpt lat="48.31203" lon="-3.99007">
        <ele>184</ele>
        <time>2014-09-21T10:45:28Z</time>
      </trkpt>
      <trkpt lat="48.31202" lon="-3.99008">
        <ele>184</ele>
        <time>2014-09-21T10:46:34Z</time>
      </trkpt>
      <trkpt lat="48.31203" lon="-3.99006">
        <ele>184</ele>
        <time>2014-09-21T10:47:33Z</time>
      </trkpt>
      <trkpt lat="48.31202" lon="-3.99004">
        <ele>184</ele>
        <time>2014-09-21T10:48:35Z</time>
      </trkpt>
      <trkpt lat="48.31201" lon="-3.99006">
        <ele>184</ele>
        <time>2014-09-21T10:49:51Z</time>
      </trkpt>
      <trkpt lat="48.31199" lon="-3.99003">
        <ele>184</ele>
        <time>2014-09-21T10:50:51Z</time>
      </trkpt>
      <trkpt lat="48.31196" lon="-3.99005">
        <ele>183</ele>
        <time>2014-09-21T10:51:51Z</time>
      </trkpt>
      <trkpt lat="48.31197" lon="-3.99008">
        <ele>184</ele>
        <time>2014-09-21T10:52:52Z</time>
      </trkpt>
      <trkpt lat="48.31199" lon="-3.99009">
        <ele>184</ele>
        <time>2014-09-21T10:53:53Z</time>
      </trkpt>
      <trkpt lat="48.31203" lon="-3.99008">
        <ele>184</ele>
        <time>2014-09-21T10:54:56Z</time>
      </trkpt>
      <trkpt lat="48.31204" lon="-3.99006">
        <ele>184</ele>
        <time>2014-09-21T10:56:05Z</time>
      </trkpt>
      <trkpt lat="48.31197" lon="-3.99003">
        <ele>184</ele>
        <time>2014-09-21T10:57:05Z</time>
      </trkpt>
      <trkpt lat="48.31204" lon="-3.99005">
        <ele>184</ele>
        <time>2014-09-21T10:58:05Z</time>
      </trkpt>
      <trkpt lat="48.31205" lon="-3.99006">
        <ele>184</ele>
        <time>2014-09-21T10:59:05Z</time>
      </trkpt>
      <trkpt lat="48.31198" lon="-3.99009">
        <ele>184</ele>
        <time>2014-09-21T11:00:05Z</time>
      </trkpt>
      <trkpt lat="48.31188" lon="-3.99015">
        <ele>183</ele>
        <time>2014-09-21T11:01:05Z</time>
      </trkpt>
      <trkpt lat="48.31233" lon="-3.99005">
        <ele>186</ele>
        <time>2014-09-21T11:02:05Z</time>
      </trkpt>
      <trkpt lat="48.31198" lon="-3.99012">
        <ele>184</ele>
        <time>2014-09-21T11:03:05Z</time>
      </trkpt>
      <trkpt lat="48.31224" lon="-3.98998">
        <ele>188</ele>
        <time>2014-09-21T11:04:06Z</time>
      </trkpt>
      <trkpt lat="48.31221" lon="-3.98999">
        <ele>188</ele>
        <time>2014-09-21T11:05:07Z</time>
      </trkpt>
      <trkpt lat="48.31197" lon="-3.99001">
        <ele>184</ele>
        <time>2014-09-21T11:06:07Z</time>
      </trkpt>
      <trkpt lat="48.31206" lon="-3.99002">
        <ele>184</ele>
        <time>2014-09-21T11:07:09Z</time>
      </trkpt>
      <trkpt lat="48.31199" lon="-3.99004">
        <ele>184</ele>
        <time>2014-09-21T11:08:09Z</time>
      </trkpt>
      <trkpt lat="48.3119" lon="-3.99008">
        <ele>183</ele>
        <time>2014-09-21T11:09:10Z</time>
      </trkpt>
      <trkpt lat="48.31191" lon="-3.99009">
        <ele>183</ele>
        <time>2014-09-21T11:10:15Z</time>
      </trkpt>
      <trkpt lat="48.31198" lon="-3.99006">
        <ele>184</ele>
        <time>2014-09-21T11:11:15Z</time>
      </trkpt>
      <trkpt lat="48.31192" lon="-3.99009">
        <ele>183</ele>
        <time>2014-09-21T11:12:15Z</time>
      </trkpt>
      <trkpt lat="48.31193" lon="-3.99008">
        <ele>183</ele>
        <time>2014-09-21T11:13:28Z</time>
      </trkpt>
      <trkpt lat="48.31194" lon="-3.99007">
        <ele>183</ele>
        <time>2014-09-21T11:14:29Z</time>
      </trkpt>
      <trkpt lat="48.31199" lon="-3.99006">
        <ele>184</ele>
        <time>2014-09-21T11:15:30Z</time>
      </trkpt>
      <trkpt lat="48.31203" lon="-3.99005">
        <ele>184</ele>
        <time>2014-09-21T11:16:30Z</time>
      </trkpt>
      <trkpt lat="48.31188" lon="-3.99009">
        <ele>183</ele>
        <time>2014-09-21T11:17:30Z</time>
      </trkpt>
      <trkpt lat="48.31182" lon="-3.9901">
        <ele>183</ele>
        <time>2014-09-21T11:18:30Z</time>
      </trkpt>
      <trkpt lat="48.31197" lon="-3.99007">
        <ele>184</ele>
        <time>2014-09-21T11:19:31Z</time>
      </trkpt>
      <trkpt lat="48.31195" lon="-3.99008">
        <ele>183</ele>
        <time>2014-09-21T11:20:40Z</time>
      </trkpt>
      <trkpt lat="48.31189" lon="-3.99006">
        <ele>183</ele>
        <time>2014-09-21T11:21:40Z</time>
      </trkpt>
      <trkpt lat="48.31188" lon="-3.99008">
        <ele>183</ele>
        <time>2014-09-21T11:22:40Z</time>
      </trkpt>
      <trkpt lat="48.31186" lon="-3.99009">
        <ele>183</ele>
        <time>2014-09-21T11:23:45Z</time>
      </trkpt>
      <trkpt lat="48.31201" lon="-3.99004">
        <ele>184</ele>
        <time>2014-09-21T11:24:46Z</time>
      </trkpt>
      <trkpt lat="48.31205" lon="-3.99002">
        <ele>184</ele>
        <time>2014-09-21T11:25:46Z</time>
      </trkpt>
      <trkpt lat="48.31208" lon="-3.99">
        <ele>184</ele>
        <time>2014-09-21T11:26:46Z</time>
      </trkpt>
      <trkpt lat="48.3121" lon="-3.99001">
        <ele>184</ele>
        <time>2014-09-21T11:28:24Z</time>
      </trkpt>
      <trkpt lat="48.31209" lon="-3.99004">
        <ele>184</ele>
        <time>2014-09-21T11:29:24Z</time>
      </trkpt>
      <trkpt lat="48.3121" lon="-3.99002">
        <ele>184</ele>
        <time>2014-09-21T11:30:24Z</time>
      </trkpt>
      <trkpt lat="48.31209" lon="-3.99003">
        <ele>184</ele>
        <time>2014-09-21T11:33:23Z</time>
      </trkpt>
      <trkpt lat="48.31205" lon="-3.99005">
        <ele>184</ele>
        <time>2014-09-21T11:34:23Z</time>
      </trkpt>
      <trkpt lat="48.31223" lon="-3.99079">
        <ele>184</ele>
        <time>2014-09-21T11:35:24Z</time>
      </trkpt>
      <trkpt lat="48.31245" lon="-3.99184">
        <ele>178</ele>
        <time>2014-09-21T11:36:24Z</time>
      </trkpt>
      <trkpt lat="48.31262" lon="-3.99289">
        <ele>175</ele>
        <time>2014-09-21T11:37:24Z</time>
      </trkpt>
      <trkpt lat="48.31267" lon="-3.99409">
        <ele>170</ele>
        <time>2014-09-21T11:38:25Z</time>
      </trkpt>
      <trkpt lat="48.31224" lon="-3.99526">
        <ele>164</ele>
        <time>2014-09-21T11:39:25Z</time>
      </trkpt>
      <trkpt lat="48.31196" lon="-3.9963">
        <ele>157</ele>
        <time>2014-09-21T11:40:25Z</time>
      </trkpt>
      <trkpt lat="48.31179" lon="-3.99707">
        <ele>146</ele>
        <time>2014-09-21T11:41:25Z</time>
      </trkpt>
      <trkpt lat="48.31136" lon="-3.99684">
        <ele>149</ele>
        <time>2014-09-21T11:42:25Z</time>
      </trkpt>
      <trkpt lat="48.31068" lon="-3.99649">
        <ele>144</ele>
        <time>2014-09-21T11:43:25Z</time>
      </trkpt>
      <trkpt lat="48.31013" lon="-3.99597">
        <ele>136</ele>
        <time>2014-09-21T11:44:25Z</time>
      </trkpt>
      <trkpt lat="48.30968" lon="-3.99571">
        <ele>121</ele>
        <time>2014-09-21T11:45:26Z</time>
      </trkpt>
      <trkpt lat="48.30953" lon="-3.99624">
        <ele>121</ele>
        <time>2014-09-21T11:46:27Z</time>
      </trkpt>
      <trkpt lat="48.30915" lon="-3.99584">
        <ele>109</ele>
        <time>2014-09-21T11:47:27Z</time>
      </trkpt>
      <trkpt lat="48.30877" lon="-3.99663">
        <ele>103</ele>
        <time>2014-09-21T11:48:27Z</time>
      </trkpt>
      <trkpt lat="48.30831" lon="-3.99724">
        <ele>93</ele>
        <time>2014-09-21T11:49:27Z</time>
      </trkpt>
      <trkpt lat="48.30807" lon="-3.99805">
        <ele>89</ele>
        <time>2014-09-21T11:50:27Z</time>
      </trkpt>
      <trkpt lat="48.30832" lon="-3.99859">
        <ele>85</ele>
        <time>2014-09-21T11:51:28Z</time>
      </trkpt>
      <trkpt lat="48.30883" lon="-3.9991">
        <ele>91</ele>
        <time>2014-09-21T11:52:28Z</time>
      </trkpt>
      <trkpt lat="48.30956" lon="-3.99997">
        <ele>81</ele>
        <time>2014-09-21T11:53:29Z</time>
      </trkpt>
      <trkpt lat="48.3101" lon="-4.00088">
        <ele>72</ele>
        <time>2014-09-21T11:54:29Z</time>
      </trkpt>
      <trkpt lat="48.31015" lon="-4.00175">
        <ele>74</ele>
        <time>2014-09-21T11:55:29Z</time>
      </trkpt>
      <trkpt lat="48.31019" lon="-4.00293">
        <ele>82</ele>
        <time>2014-09-21T11:56:30Z</time>
      </trkpt>
      <trkpt lat="48.31055" lon="-4.00323">
        <ele>85</ele>
        <time>2014-09-21T11:57:30Z</time>
      </trkpt>
      <trkpt lat="48.31099" lon="-4.00374">
        <ele>96</ele>
        <time>2014-09-21T11:58:30Z</time>
      </trkpt>
      <trkpt lat="48.31113" lon="-4.00438">
        <ele>103</ele>
        <time>2014-09-21T11:59:31Z</time>
      </trkpt>
      <trkpt lat="48.31189" lon="-4.00421">
        <ele>112</ele>
        <time>2014-09-21T12:00:31Z</time>
      </trkpt>
      <trkpt lat="48.31236" lon="-4.00435">
        <ele>116</ele>
        <time>2014-09-21T12:01:32Z</time>
      </trkpt>
      <trkpt lat="48.31195" lon="-4.00494">
        <ele>115</ele>
        <time>2014-09-21T12:02:33Z</time>
      </trkpt>
      <trkpt lat="48.31198" lon="-4.00552">
        <ele>119</ele>
        <time>2014-09-21T12:03:33Z</time>
      </trkpt>
      <trkpt lat="48.31281" lon="-4.00526">
        <ele>124</ele>
        <time>2014-09-21T12:04:33Z</time>
      </trkpt>
      <trkpt lat="48.31338" lon="-4.00542">
        <ele>126</ele>
        <time>2014-09-21T12:05:33Z</time>
      </trkpt>
      <trkpt lat="48.31349" lon="-4.00559">
        <ele>126</ele>
        <time>2014-09-21T12:06:34Z</time>
      </trkpt>
      <trkpt lat="48.31348" lon="-4.00552">
        <ele>126</ele>
        <time>2014-09-21T12:07:34Z</time>
      </trkpt>
      <trkpt lat="48.31415" lon="-4.00606">
        <ele>132</ele>
        <time>2014-09-21T12:08:34Z</time>
      </trkpt>
      <trkpt lat="48.31431" lon="-4.00732">
        <ele>133</ele>
        <time>2014-09-21T12:09:34Z</time>
      </trkpt>
      <trkpt lat="48.31403" lon="-4.00842">
        <ele>140</ele>
        <time>2014-09-21T12:10:34Z</time>
      </trkpt>
      <trkpt lat="48.31349" lon="-4.00943">
        <ele>140</ele>
        <time>2014-09-21T12:11:28Z</time>
      </trkpt>
      <trkpt lat="48.31284" lon="-4.00967">
        <ele>140</ele>
        <time>2014-09-21T12:12:35Z</time>
      </trkpt>
      <trkpt lat="48.31246" lon="-4.0106">
        <ele>139</ele>
        <time>2014-09-21T12:13:35Z</time>
      </trkpt>
      <trkpt lat="48.31208" lon="-4.01159">
        <ele>141</ele>
        <time>2014-09-21T12:14:35Z</time>
      </trkpt>
      <trkpt lat="48.31191" lon="-4.01162">
        <ele>141</ele>
        <time>2014-09-21T12:15:35Z</time>
      </trkpt>
      <trkpt lat="48.31198" lon="-4.01152">
        <ele>141</ele>
        <time>2014-09-21T12:16:36Z</time>
      </trkpt>
    </trkseg>
  </trk>
</gpx>